createdAt,value
2017-06-20T19:01:12.881Z,332
2017-06-20T19:05:22.736Z,296
2017-06-20T19:07:47.933Z,272
2017-06-20T19:10:19.487Z,248
2017-06-20T19:12:45.711Z,224
2017-06-20T19:15:10.925Z,200
2017-06-20T19:17:36.538Z,176
2017-06-20T19:20:01.800Z,156
2017-06-20T19:22:18.788Z,136
2017-06-20T19:24:44.014Z,116
2017-06-20T19:27:09.280Z,100
2017-06-20T19:29:36.483Z,80
2017-06-20T19:32:01.735Z,68
2017-06-20T19:34:26.941Z,60
2017-06-20T19:36:52.785Z,44
2017-06-20T19:39:17.960Z,36
2017-06-20T19:41:43.101Z,28
2017-06-20T19:44:08.282Z,20
2017-06-20T19:46:24.863Z,20
2017-06-20T19:48:49.998Z,12
2017-06-20T19:51:15.138Z,12
2017-06-20T19:53:40.335Z,8
2017-06-20T19:56:06.307Z,4
2017-06-20T19:58:31.326Z,0
2017-06-20T20:00:47.933Z,4
2017-06-20T20:03:13.044Z,0
2017-06-20T20:05:38.155Z,0
2017-06-20T20:08:03.317Z,0
2017-06-20T20:10:31.122Z,0
2017-06-20T20:12:41.943Z,0
2017-06-20T20:14:58.599Z,0
2017-06-20T20:17:15.248Z,0
2017-06-20T20:19:31.740Z,0
2017-06-20T20:21:56.701Z,0
2017-06-20T20:24:21.823Z,0
2017-06-20T20:26:46.918Z,0
2017-06-20T20:29:12.057Z,0
2017-06-20T20:31:39.124Z,0
2017-06-20T20:34:04.206Z,0
2017-06-20T20:36:23.213Z,0
2017-06-20T20:38:48.261Z,0
2017-06-20T20:41:26.124Z,0
2017-06-20T20:43:57.842Z,0
2017-06-20T20:48:32.730Z,0
2017-06-20T20:50:58.490Z,0
2017-06-20T20:53:09.217Z,0
2017-06-20T20:55:50.041Z,0
2017-06-20T20:58:16.063Z,0
2017-06-20T21:00:43.083Z,0
2017-06-20T21:03:22.953Z,0
2017-06-20T21:05:47.914Z,0
2017-06-20T21:08:13.887Z,0
2017-06-20T21:10:39.975Z,0
2017-06-20T21:13:05.026Z,0
2017-06-20T21:15:29.950Z,0
2017-06-20T21:17:46.416Z,0
2017-06-20T21:21:39.096Z,0
2017-06-20T21:24:04.091Z,0
2017-06-20T21:28:04.774Z,0
2017-06-20T21:30:38.539Z,0
2017-06-20T21:33:10.091Z,0
2017-06-20T21:35:27.520Z,0
2017-06-20T21:37:50.595Z,0
2017-06-20T21:40:31.051Z,0
2017-06-20T21:43:03.623Z,0
2017-06-20T21:45:20.030Z,0
2017-06-20T21:47:44.910Z,0
2017-06-20T21:50:10.736Z,0
2017-06-20T21:52:35.641Z,0
2017-06-20T21:54:52.027Z,0
2017-06-20T21:57:16.935Z,0
2017-06-20T21:59:41.802Z,0
2017-06-20T22:02:07.648Z,0
2017-06-20T22:04:31.536Z,0
2017-06-20T22:06:52.084Z,0
2017-06-20T22:10:52.637Z,0
2017-06-20T22:13:24.543Z,0
2017-06-20T22:15:56.013Z,0
2017-06-20T22:18:20.800Z,0
2017-06-20T22:22:21.406Z,0
2017-06-20T22:24:46.261Z,0
2017-06-20T22:27:12.052Z,0
2017-06-20T22:29:28.480Z,0
2017-06-20T22:31:54.299Z,0
2017-06-20T22:34:19.090Z,0
2017-06-20T22:36:45.943Z,0
2017-06-20T22:39:04.600Z,0
2017-06-20T22:41:37.913Z,0
2017-06-20T22:44:04.729Z,0
2017-06-20T22:46:36.386Z,0
2017-06-20T22:49:02.214Z,0
2017-06-20T22:51:29.058Z,0
2017-06-20T22:53:53.879Z,0
2017-06-20T22:56:27.476Z,0
2017-06-20T22:58:52.250Z,0
2017-06-20T23:01:17.068Z,0
2017-06-20T23:03:42.886Z,0
2017-06-20T23:08:02.801Z,0
2017-06-20T23:10:35.568Z,0
2017-06-20T23:13:00.370Z,0
2017-06-20T23:17:27.629Z,0
2017-06-20T23:21:56.786Z,0
2017-06-20T23:24:14.113Z,0
2017-06-20T23:26:46.867Z,0
2017-06-20T23:29:13.612Z,0
2017-06-20T23:33:41.936Z,0
2017-06-20T23:36:06.698Z,0
2017-06-20T23:38:32.406Z,0
2017-06-20T23:40:58.154Z,0
2017-06-20T23:43:29.202Z,0
2017-06-20T23:48:02.644Z,0
2017-06-20T23:50:33.952Z,0
2017-06-20T23:52:58.656Z,0
2017-06-20T23:55:23.333Z,0
2017-06-20T23:57:49.977Z,0
